Tucumcari ASC

Feb. 28, 2020, 10:25 a.m.

  • imperial
Air Temperature RH Dewpoint Wind Chill Heat Index Wind Speed Wind Direction Precipitation Solar Radiation Soil Temperature
Date Time Total Total
US/Mountain F % F F F MPH deg. in. MJ/m^2 F
2020-02-27 10:25 50.9 21.31 12.64 50.9 50.9 5.64 336.0 0.0 0.224 40.41
2020-02-27 10:30 51.31 20.28 11.87 51.31 51.31 0.98 279.3 0.0 0.227 40.87
2020-02-27 10:35 52.05 20.24 12.44 52.05 52.05 5.82 292.8 0.0 0.23 41.31
2020-02-27 10:40 52.36 19.53 11.88 52.36 52.36 4.56 327.4 0.0 0.232 41.76
2020-02-27 10:45 52.97 19.59 12.46 52.97 52.97 4.56 240.3 0.0 0.235 42.21
2020-02-27 10:50 53.2 19.15 12.14 53.2 53.2 3.13 254.1 0.0 0.238 42.64
2020-02-27 10:55 54.12 17.82 11.28 54.12 54.12 1.88 197.6 0.0 0.24 43.09
2020-02-27 11:00 54.43 19.08 13.07 54.43 54.43 3.49 239.2 0.0 0.242 43.54
2020-02-27 11:05 54.25 18.36 12.05 54.25 54.25 2.42 120.2 0.0 0.244 43.97
2020-02-27 11:10 54.43 18.12 11.9 54.43 54.43 1.88 318.3 0.0 0.246 44.4
2020-02-27 11:15 55.96 17.88 12.86 55.96 55.96 2.42 167.3 0.0 0.248 44.82
2020-02-27 11:20 55.83 17.17 11.84 55.83 55.83 8.12 198.5 0.0 0.25 45.25
2020-02-27 11:25 56.44 16.86 11.93 56.44 56.44 3.49 127.6 0.0 0.251 45.66
2020-02-27 11:30 56.55 16.82 11.96 56.55 56.55 5.28 201.2 0.0 0.253 46.08
2020-02-27 11:35 56.19 16.79 11.63 56.19 56.19 4.92 196.7 0.0 0.254 46.49
2020-02-27 11:40 56.32 17.37 12.5 56.32 56.32 3.49 222.4 0.0 0.255 46.89
2020-02-27 11:45 56.55 16.79 11.92 56.55 56.55 3.67 208.9 0.0 0.256 47.28
2020-02-27 11:50 57.9 15.66 11.45 57.9 57.9 4.56 314.4 0.0 0.256 47.68
2020-02-27 11:55 57.24 15.36 10.47 57.24 57.24 4.38 228.9 0.0 0.257 48.04
2020-02-27 12:00 57.16 15.53 10.66 57.16 57.16 3.13 51.3 0.0 0.257 48.43
2020-02-27 12:05 57.36 15.05 10.12 57.36 57.36 2.42 316.1 0.0 0.257 48.78
2020-02-27 12:10 58.77 14.3 10.1 58.77 58.77 6.53 350.8 0.0 0.257 49.14
2020-02-27 12:15 57.97 14.98 10.51 57.97 57.97 5.46 325.4 0.0 0.257 49.48
2020-02-27 12:20 58.21 14.43 9.86 58.21 58.21 3.67 266.3 0.0 0.257 49.82
2020-02-27 12:25 58.77 14.5 10.41 58.77 58.77 5.64 265.6 0.0 0.257 50.18
2020-02-27 12:30 58.77 13.75 9.23 58.77 58.77 2.24 201.0 0.0 0.256 50.52
2020-02-27 12:35 59.81 14.67 11.51 59.81 59.81 4.38 0.1 0.0 0.255 50.85
2020-02-27 12:40 59.38 14.33 10.64 59.38 59.38 4.92 0.9 0.0 0.254 51.17
2020-02-27 12:45 58.82 14.47 10.41 58.82 58.82 4.74 281.2 0.0 0.253 51.46
2020-02-27 12:50 58.77 13.72 9.18 58.77 58.77 1.7 153.7 0.0 0.253 51.76
2020-02-27 12:55 59.18 14.23 10.32 59.18 59.18 3.13 253.6 0.0 0.251 52.05
2020-02-27 13:00 58.95 14.16 10.03 58.95 58.95 3.49 327.9 0.0 0.25 52.36
2020-02-27 13:05 59.56 13.99 10.24 59.56 59.56 4.74 240.5 0.0 0.248 52.63
2020-02-27 13:10 58.93 14.6 10.7 58.93 58.93 1.52 330.5 0.0 0.247 52.9
2020-02-27 13:15 58.93 14.3 10.23 58.93 58.93 5.1 252.7 0.0 0.246 53.15
2020-02-27 13:20 59.67 14.57 11.24 59.67 59.67 4.92 253.1 0.0 0.244 53.42
2020-02-27 13:25 59.23 14.12 10.19 59.23 59.23 3.49 231.2 0.0 0.242 53.65
2020-02-27 13:30 59.74 13.68 9.89 59.74 59.74 2.77 213.1 0.0 0.239 53.87
2020-02-27 13:35 59.92 13.37 9.52 59.92 59.92 3.49 194.6 0.0 0.237 54.1
2020-02-27 13:40 60.4 13.2 9.62 60.4 60.4 0.98 157.8 0.0 0.234 54.32
2020-02-27 13:45 60.53 13.37 10.0 60.53 60.53 3.13 64.0 0.0 0.231 54.54
2020-02-27 13:50 60.1 13.27 9.49 60.1 60.1 2.77 327.6 0.0 0.228 54.72
2020-02-27 13:55 60.58 13.3 9.93 60.58 60.58 5.64 326.0 0.0 0.225 54.9
2020-02-27 14:00 60.4 13.17 9.57 60.4 60.4 8.12 174.7 0.0 0.222 55.08
2020-02-27 14:05 60.84 13.58 10.6 60.84 60.84 3.13 234.6 0.0 0.219 55.24
2020-02-27 14:10 60.51 13.58 10.34 60.51 60.51 5.28 218.5 0.0 0.216 55.38
2020-02-27 14:15 62.11 13.68 11.78 62.11 62.11 2.95 45.1 0.0 0.212 55.54
2020-02-27 14:20 61.14 13.17 10.15 61.14 61.14 6.17 48.7 0.0 0.208 55.67
2020-02-27 14:25 60.22 12.42 8.12 60.22 60.22 5.1 351.1 0.0 0.205 55.8
2020-02-27 14:30 60.46 12.62 8.66 60.46 60.46 2.77 223.3 0.0 0.201 55.9
2020-02-27 14:35 61.07 12.35 8.66 61.07 61.07 1.16 214.2 0.0 0.197 56.03
2020-02-27 14:40 61.32 12.52 9.16 61.32 61.32 7.43 12.2 0.0 0.193 56.14
2020-02-27 14:45 61.12 12.14 8.32 61.12 61.12 3.67 62.8 0.0 0.188 56.23
2020-02-27 14:50 60.82 12.52 8.77 60.82 60.82 4.56 330.5 0.0 0.184 56.32
2020-02-27 14:55 61.25 12.69 9.41 61.25 61.25 3.49 12.8 0.0 0.18 56.41
2020-02-27 15:00 61.99 12.38 9.44 61.99 61.99 6.0 317.3 0.0 0.175 56.46
2020-02-27 15:05 61.93 12.08 8.85 61.93 61.93 3.13 299.8 0.0 0.171 56.52
2020-02-27 15:10 61.68 11.91 8.34 61.68 61.68 1.7 62.5 0.0 0.166 56.55
2020-02-27 15:15 62.29 12.01 9.0 62.29 62.29 4.38 152.2 0.0 0.161 56.59
2020-02-27 15:20 61.74 11.77 8.12 61.74 61.74 4.56 216.4 0.0 0.157 56.62
2020-02-27 15:25 61.63 11.53 7.57 61.63 61.63 2.24 130.0 0.0 0.151 56.62
2020-02-27 15:30 62.42 11.63 8.39 62.42 62.42 3.85 170.6 0.0 0.146 56.59
2020-02-27 15:35 61.68 11.56 7.67 61.68 61.68 2.77 96.4 0.0 0.141 56.57
2020-02-27 15:40 62.17 11.56 8.05 62.17 62.17 1.16 30.9 0.0 0.136 56.52
2020-02-27 15:45 63.36 11.53 8.92 63.36 63.36 3.13 274.0 0.0 0.13 56.44
2020-02-27 15:50 62.55 11.5 8.23 62.55 62.55 3.67 65.9 0.0 0.125 56.37
2020-02-27 15:55 62.67 11.67 8.66 62.67 62.67 2.59 130.0 0.0 0.119 56.28
2020-02-27 16:00 62.8 11.22 7.88 62.8 62.8 3.31 104.3 0.0 0.114 56.21
2020-02-27 16:05 62.01 11.43 7.68 62.01 62.01 1.88 96.7 0.0 0.108 56.12
2020-02-27 16:10 61.7 11.7 7.95 61.7 61.7 4.92 129.6 0.0 0.103 56.05
2020-02-27 16:15 61.39 11.57 7.47 61.39 61.39 2.06 128.9 0.0 0.097 55.96
2020-02-27 16:20 61.65 11.63 7.78 61.65 61.65 4.03 118.0 0.0 0.091 55.89
2020-02-27 16:25 61.75 11.36 7.34 61.75 61.75 2.06 129.6 0.0 0.086 55.78
2020-02-27 16:30 61.77 11.43 7.49 61.77 61.77 4.03 93.5 0.0 0.08 55.67
2020-02-27 16:35 62.02 11.64 8.09 62.02 62.02 2.24 143.9 0.0 0.074 55.56
2020-02-27 16:40 61.72 11.84 8.23 61.72 61.72 2.77 81.7 0.0 0.068 55.45
2020-02-27 16:45 61.29 11.7 7.63 61.29 61.29 4.74 62.1 0.0 0.063 55.33
2020-02-27 16:50 60.73 11.64 7.08 60.73 60.73 3.67 116.5 0.0 0.057 55.22
2020-02-27 16:55 61.11 11.57 7.24 61.11 61.11 3.67 113.6 0.0 0.052 55.09
2020-02-27 17:00 60.85 12.32 8.44 60.85 60.85 2.42 150.7 0.0 0.046 54.95
2020-02-27 17:05 60.6 12.35 8.29 60.6 60.6 2.59 151.2 0.0 0.041 54.81
2020-02-27 17:10 60.24 12.22 7.77 60.24 60.24 3.49 117.8 0.0 0.035 54.66
2020-02-27 17:15 59.99 12.52 8.11 59.99 59.99 2.95 120.1 0.0 0.029 54.5
2020-02-27 17:20 58.95 12.83 7.83 58.95 58.95 4.38 106.7 0.0 0.023 54.36
2020-02-27 17:25 58.28 13.31 8.11 58.28 58.28 6.0 114.8 0.0 0.017 54.16
2020-02-27 17:30 56.93 14.2 8.47 56.93 56.93 5.64 107.2 0.0 0.013 54.0
2020-02-27 17:35 56.07 15.22 9.32 56.07 56.07 3.67 88.7 0.0 0.009 53.83
2020-02-27 17:40 54.79 16.04 9.46 54.79 54.79 3.67 79.9 0.0 0.006 53.65
2020-02-27 17:45 53.49 16.52 9.06 53.49 53.49 3.67 80.8 0.0 0.003 53.47
2020-02-27 17:50 52.52 17.07 9.0 52.52 52.52 3.85 86.3 0.0 0.002 53.31
2020-02-27 17:55 51.17 18.09 9.18 51.17 51.17 3.13 79.7 0.0 0.001 53.13
2020-02-27 18:00 50.45 19.32 10.06 50.45 50.45 3.13 58.5 0.0 0.0 52.95
2020-02-27 18:05 49.59 19.39 9.42 48.62 49.59 3.67 75.8 0.0 0.0 52.75
2020-02-27 18:10 49.1 19.59 9.24 48.52 49.1 3.13 76.5 0.0 0.0 52.59
2020-02-27 18:15 48.87 19.66 9.13 48.87 48.87 2.95 84.5 0.0 0.0 52.39
2020-02-27 18:20 48.13 20.69 9.65 47.25 48.13 3.31 61.8 0.0 0.0 52.2
2020-02-27 18:25 47.59 20.76 9.27 45.78 47.59 4.38 70.5 0.0 0.0 52.02
2020-02-27 18:30 47.34 21.03 9.35 44.1 47.34 6.71 80.7 0.0 0.0 51.84
2020-02-27 18:35 47.03 21.82 9.92 44.64 47.03 5.1 79.2 0.0 0.0 51.64
2020-02-27 18:40 47.53 21.72 10.24 44.61 47.53 6.17 90.6 0.0 0.0 51.46
2020-02-27 18:45 46.92 22.3 10.31 43.69 46.92 6.53 73.9 0.0 0.0 51.3
2020-02-27 18:50 46.74 22.68 10.54 42.34 46.74 9.04 72.0 0.0 0.0 51.12
2020-02-27 18:55 46.74 22.71 10.57 43.38 46.74 6.71 81.2 0.0 0.0 50.97
2020-02-27 19:00 46.44 23.09 10.68 42.75 46.44 7.25 82.8 0.0 0.0 50.81
2020-02-27 19:05 46.2 23.43 10.81 42.73 46.2 6.71 90.9 0.0 0.0 50.65
2020-02-27 19:10 46.33 23.6 11.08 42.45 46.33 7.61 97.8 0.0 0.0 50.5
2020-02-27 19:15 45.82 24.05 11.08 41.52 45.82 8.3 96.4 0.0 0.0 50.36
2020-02-27 19:20 45.16 24.73 11.14 41.39 45.16 6.89 76.9 0.0 0.0 50.22
2020-02-27 19:25 44.47 25.62 11.35 40.47 44.47 7.07 85.8 0.0 0.0 50.09
2020-02-27 19:30 44.67 25.82 11.7 40.44 44.67 7.61 95.4 0.0 0.0 49.93
2020-02-27 19:35 44.47 26.17 11.83 40.86 44.47 6.35 83.9 0.0 0.0 49.8
2020-02-27 19:40 43.86 26.88 11.91 40.02 43.86 6.53 78.7 0.0 0.0 49.68
2020-02-27 19:45 43.63 27.4 12.14 40.28 43.63 5.64 80.4 0.0 0.0 49.53
2020-02-27 19:50 43.25 27.87 12.2 39.39 43.25 6.35 104.4 0.0 0.0 49.41
2020-02-27 19:55 43.0 27.94 12.03 38.23 43.0 7.96 98.8 0.0 0.0 49.28
2020-02-27 20:00 43.12 27.91 12.12 38.84 43.12 7.07 85.1 0.0 0.0 49.15
2020-02-27 20:05 42.76 28.29 12.11 39.03 42.76 6.0 89.8 0.0 0.0 49.03
2020-02-27 20:10 41.97 29.04 12.02 38.69 41.97 5.1 88.5 0.0 0.0 48.9
2020-02-27 20:15 41.54 29.52 12.01 37.57 41.54 6.0 107.5 0.0 0.0 48.78
2020-02-27 20:20 41.18 30.0 12.06 38.47 41.18 4.21 88.7 0.0 0.0 48.67
2020-02-27 20:25 40.64 30.85 12.22 37.54 40.64 4.56 90.8 0.0 0.0 48.54
2020-02-27 20:30 40.57 31.16 12.38 37.31 40.57 4.74 90.6 0.0 0.0 48.42
2020-02-27 20:35 40.46 31.5 12.53 37.97 40.46 3.85 81.4 0.0 0.0 48.31
2020-02-27 20:40 40.51 31.37 12.49 37.4 40.51 4.56 75.1 0.0 0.0 48.18
2020-02-27 20:45 40.08 31.74 12.37 37.71 40.08 3.67 85.8 0.0 0.0 48.07
2020-02-27 20:50 39.47 32.56 12.41 37.38 39.47 3.31 88.8 0.0 0.0 47.93
2020-02-27 20:55 38.79 33.35 12.35 36.81 38.79 3.13 70.0 0.0 0.0 47.82
2020-02-27 21:00 38.23 34.44 12.58 38.23 38.23 2.59 100.4 0.0 0.0 47.7
2020-02-27 21:05 37.87 34.72 12.45 34.98 37.87 3.85 90.3 0.0 0.0 47.57
2020-02-27 21:10 37.74 34.92 12.47 35.41 37.74 3.31 78.5 0.0 0.0 47.46
2020-02-27 21:15 37.81 35.13 12.67 37.81 37.81 2.77 86.3 0.0 0.0 47.35
2020-02-27 21:20 37.74 34.99 12.51 37.74 37.74 2.95 63.7 0.0 0.0 47.25
2020-02-27 21:25 37.62 35.23 12.55 35.07 37.62 3.49 88.0 0.0 0.0 47.12
2020-02-27 21:30 37.63 35.27 12.6 35.09 37.63 3.49 81.1 0.0 0.0 47.03
2020-02-27 21:35 37.33 36.02 12.8 37.33 37.33 2.42 75.7 0.0 0.0 46.9
2020-02-27 21:40 37.02 37.05 13.17 37.02 37.02 2.77 57.8 0.0 0.0 46.78
2020-02-27 21:45 36.84 37.59 13.34 34.39 36.84 3.31 54.7 0.0 0.0 46.67
2020-02-27 21:50 36.72 37.39 13.1 34.46 36.72 3.13 71.0 0.0 0.0 46.56
2020-02-27 21:55 36.59 37.39 12.99 36.59 36.59 2.77 103.3 0.0 0.0 46.44
2020-02-27 22:00 36.41 37.46 12.87 33.89 36.41 3.31 51.7 0.0 0.0 46.33
2020-02-27 22:05 35.92 38.45 13.03 35.92 35.92 2.24 63.3 0.0 0.0 46.24
2020-02-27 22:10 35.92 38.28 12.92 35.92 35.92 2.24 50.0 0.0 0.0 46.13
2020-02-27 22:15 36.97 36.98 13.08 36.97 36.97 2.59 107.4 0.0 0.0 46.0
2020-02-27 22:20 36.48 37.33 12.85 33.57 36.48 3.67 59.6 0.0 0.0 45.9
2020-02-27 22:25 37.04 36.75 13.0 33.84 37.04 4.03 76.1 0.0 0.0 45.79
2020-02-27 22:30 36.79 36.99 12.92 34.12 36.79 3.49 72.9 0.0 0.0 45.72
2020-02-27 22:35 35.44 38.83 12.81 32.18 35.44 3.85 76.5 0.0 0.0 45.59
2020-02-27 22:40 34.83 40.06 12.97 31.28 34.83 4.03 89.6 0.0 0.0 45.5
2020-02-27 22:45 35.8 38.97 13.22 35.8 35.8 2.42 83.8 0.0 0.0 45.41
2020-02-27 22:50 35.8 38.56 12.98 33.2 35.8 3.31 97.3 0.0 0.0 45.32
2020-02-27 22:55 35.06 39.65 12.95 32.36 35.06 3.31 86.4 0.0 0.0 45.23
2020-02-27 23:00 34.93 40.27 13.18 30.11 34.93 5.46 55.0 0.0 0.0 45.12
2020-02-27 23:05 36.91 38.08 13.69 30.54 36.91 8.48 14.0 0.0 0.0 45.01
2020-02-27 23:10 37.4 37.19 13.59 30.51 37.4 9.73 47.5 0.0 0.0 44.94
2020-02-27 23:15 35.98 42.25 15.23 31.49 35.98 5.28 36.9 0.0 0.0 44.83
2020-02-27 23:20 35.44 42.45 14.84 28.83 35.44 8.3 28.2 0.0 0.0 44.74
2020-02-27 23:25 35.92 40.61 14.27 29.43 35.92 8.3 38.2 0.0 0.0 44.67
2020-02-27 23:30 36.3 39.65 14.07 30.72 36.3 6.89 26.6 0.0 0.0 44.6
2020-02-27 23:35 36.41 38.83 13.69 29.54 36.41 9.22 33.9 0.0 0.0 44.53
2020-02-27 23:40 36.05 39.04 13.48 28.76 36.05 9.91 29.4 0.0 0.0 44.46
2020-02-27 23:45 35.56 39.86 13.52 27.28 35.56 11.88 39.5 0.0 0.0 44.38
2020-02-27 23:50 34.83 41.29 13.66 28.94 34.83 6.89 40.1 0.0 0.0 44.28
2020-02-27 23:55 34.93 40.61 13.37 28.62 34.93 7.61 32.2 0.0 0.0 44.2
2020-02-28 00:00 34.83 41.22 13.62 28.83 34.83 7.07 41.3 0.0 0.0 44.13
2020-02-28 00:05 34.63 42.18 13.96 28.36 34.63 7.43 52.1 0.0 0.0 44.06
2020-02-28 00:10 34.7 41.77 13.8 27.34 34.7 9.4 30.9 0.0 0.0 43.99
2020-02-28 00:15 34.7 42.01 13.94 27.72 34.7 8.68 46.9 0.0 0.0 43.92
2020-02-28 00:20 34.2 43.14 14.08 25.34 34.2 12.42 36.9 0.0 0.0 43.84
2020-02-28 00:25 34.09 43.62 14.24 26.68 34.09 9.22 44.7 0.0 0.0 43.77
2020-02-28 00:30 33.28 45.53 14.48 24.97 33.28 10.63 11.7 0.0 0.0 43.7
2020-02-28 00:35 32.85 46.62 14.62 25.25 32.85 9.04 25.0 0.0 0.0 43.63
2020-02-28 00:40 35.31 42.63 14.83 27.43 35.31 10.8 31.6 0.0 0.0 43.57
2020-02-28 00:45 35.56 42.39 14.93 28.16 35.56 9.91 49.0 0.0 0.0 43.48
2020-02-28 00:50 35.31 43.27 15.17 26.89 35.31 12.06 46.5 0.0 0.0 43.43
2020-02-28 00:55 35.44 43.0 15.14 27.83 35.44 10.27 33.8 0.0 0.0 43.36
2020-02-28 01:00 34.93 43.62 15.01 27.72 34.93 9.22 34.5 0.0 0.0 43.29
2020-02-28 01:05 33.96 44.95 14.81 26.17 33.96 9.91 47.2 0.0 0.0 43.21
2020-02-28 01:10 33.58 45.94 14.96 27.1 33.58 7.43 25.2 0.0 0.0 43.14
2020-02-28 01:15 33.4 46.76 15.2 27.23 33.4 6.89 45.2 0.0 0.0 43.11
2020-02-28 01:20 32.97 47.86 15.34 26.47 32.97 7.25 39.5 0.0 0.0 43.03
2020-02-28 01:25 33.1 47.51 15.29 25.46 33.1 9.22 49.7 0.0 0.0 42.96
2020-02-28 01:30 32.85 47.58 15.09 25.98 32.85 7.78 30.8 0.0 0.0 42.89
2020-02-28 01:35 33.03 47.62 15.27 27.03 33.03 6.53 28.2 0.0 0.0 42.82
2020-02-28 01:40 33.28 47.03 15.22 29.13 33.28 4.38 1.6 0.0 0.0 42.76
2020-02-28 01:45 31.75 49.26 14.87 26.5 31.75 5.28 326.5 0.0 0.0 42.71
2020-02-28 01:50 29.66 54.28 15.16 25.52 29.66 3.85 315.1 0.0 0.0 42.64
2020-02-28 01:55 29.84 54.97 15.61 25.95 29.84 3.67 88.3 0.0 0.0 42.57
2020-02-28 02:00 29.79 55.18 15.65 24.18 29.79 5.28 344.5 0.0 0.0 42.48
2020-02-28 02:05 29.79 56.68 16.27 23.87 29.79 5.64 11.7 0.0 0.0 42.4
2020-02-28 02:10 32.74 51.01 16.59 28.32 32.74 4.56 67.5 0.0 0.0 42.33
2020-02-28 02:15 31.39 53.54 16.45 27.51 31.39 3.85 0.0 0.0 0.0 42.26
2020-02-28 02:20 33.12 51.29 17.07 28.27 33.12 5.1 29.2 0.0 0.0 42.21
2020-02-28 02:25 34.16 48.49 16.74 28.14 34.16 6.89 333.9 0.0 0.0 42.13
2020-02-28 02:30 32.02 52.8 16.72 26.82 32.02 5.28 20.1 0.0 0.0 42.06
2020-02-28 02:35 32.76 51.91 17.01 27.84 32.76 5.1 347.1 0.0 0.0 41.99
2020-02-28 02:40 35.33 46.3 16.74 30.44 35.33 5.64 42.4 0.0 0.0 41.92
2020-02-28 02:45 32.88 51.26 16.84 32.88 32.88 2.77 7.2 0.0 0.0 41.85
2020-02-28 02:50 31.82 53.24 16.73 31.82 31.82 2.95 350.3 0.0 0.0 41.81
2020-02-28 02:55 31.77 53.96 16.99 31.77 31.77 2.95 5.4 0.0 0.0 41.74
2020-02-28 03:00 30.67 55.46 16.59 26.28 30.67 4.21 334.5 0.0 0.0 41.67
2020-02-28 03:05 30.04 57.45 16.82 24.16 30.04 5.64 4.0 0.0 0.0 41.61
2020-02-28 03:10 30.42 56.15 16.64 26.19 30.42 4.03 309.7 0.0 0.0 41.54
2020-02-28 03:15 28.69 60.59 16.78 23.41 28.69 4.74 324.0 0.0 0.0 41.49
2020-02-28 03:20 28.44 60.28 16.42 22.93 28.44 4.92 327.0 0.0 0.0 41.4
2020-02-28 03:25 28.69 59.84 16.49 24.19 28.69 4.03 4.8 0.0 0.0 41.34
2020-02-28 03:30 29.55 58.03 16.59 23.75 29.55 5.46 0.0 0.0 0.0 41.27
2020-02-28 03:35 28.44 60.18 16.38 23.3 28.44 4.56 316.0 0.0 0.0 41.2
2020-02-28 03:40 27.9 61.28 16.29 23.95 27.9 3.49 339.2 0.0 0.0 41.13
2020-02-28 03:45 28.94 59.22 16.48 24.08 28.94 4.38 0.9 0.0 0.0 41.05
2020-02-28 03:50 28.0 62.57 16.87 22.99 28.0 4.38 305.0 0.0 0.0 40.98
2020-02-28 03:55 28.2 61.51 16.66 24.79 28.2 3.13 342.9 0.0 0.0 40.91
2020-02-28 04:00 27.59 62.03 16.28 27.59 27.59 1.34 115.1 0.0 0.0 40.84
2020-02-28 04:05 27.21 62.99 16.27 27.21 27.21 1.34 317.8 0.0 0.0 40.77
2020-02-28 04:10 28.08 60.8 16.28 28.08 28.08 2.42 287.1 0.0 0.0 40.69
2020-02-28 04:15 27.46 64.43 17.04 27.46 27.46 2.95 353.5 0.0 0.0 40.62
2020-02-28 04:20 28.81 60.33 16.8 25.49 28.81 3.13 344.4 0.0 0.0 40.55
2020-02-28 04:25 27.77 61.42 16.22 27.77 27.77 1.34 252.6 0.0 0.0 40.5
2020-02-28 04:30 27.28 63.47 16.52 21.77 27.28 4.74 10.8 0.0 0.0 40.39
2020-02-28 04:35 28.71 59.92 16.54 25.11 28.71 3.31 338.4 0.0 0.0 40.32
2020-02-28 04:40 29.07 59.03 16.53 25.52 29.07 3.31 7.1 0.0 0.0 40.24
2020-02-28 04:45 29.32 58.76 16.66 29.32 29.32 2.24 323.2 0.0 0.0 40.17
2020-02-28 04:50 28.09 63.17 17.18 22.9 28.09 4.56 323.2 0.0 0.0 40.1
2020-02-28 04:55 28.51 61.22 16.84 28.51 28.51 2.59 311.0 0.0 0.0 40.05
2020-02-28 05:00 27.72 62.21 16.46 22.65 27.72 4.38 319.0 0.0 0.0 39.97
2020-02-28 05:05 26.49 65.26 16.4 22.85 26.49 3.13 198.7 0.0 0.0 39.9
2020-02-28 05:10 26.24 66.49 16.6 26.24 26.24 0.98 244.5 0.0 0.0 39.85
2020-02-28 05:15 25.99 66.11 16.22 25.99 25.99 2.24 228.2 0.0 0.0 39.79
2020-02-28 05:20 25.75 67.07 16.33 25.75 25.75 2.95 251.2 0.0 0.0 39.72
2020-02-28 05:25 25.14 68.41 16.2 25.14 25.14 2.77 261.6 0.0 0.0 39.65
2020-02-28 05:30 25.02 68.14 15.99 25.02 25.02 0.0 164.0 0.0 0.0 39.58
2020-02-28 05:35 25.02 67.93 15.92 25.02 25.02 1.52 228.6 0.0 0.0 39.49
2020-02-28 05:40 25.52 67.04 16.1 25.52 25.52 2.24 254.7 0.0 0.0 39.42
2020-02-28 05:45 25.52 68.82 16.7 25.52 25.52 2.24 289.5 0.0 0.0 39.34
2020-02-28 05:50 25.52 67.86 16.38 21.75 25.52 3.13 311.5 0.0 0.0 39.29
2020-02-28 05:55 25.83 65.44 15.83 20.25 25.83 4.56 315.7 0.0 0.0 39.22
2020-02-28 06:00 25.63 65.26 15.58 20.88 25.63 3.85 326.8 0.0 0.0 39.15
2020-02-28 06:05 25.39 65.91 15.59 20.16 25.39 4.21 311.9 0.0 0.0 39.07
2020-02-28 06:10 25.52 66.36 15.86 21.23 25.52 3.49 288.9 0.0 0.0 39.02
2020-02-28 06:15 25.63 67.66 16.41 20.43 25.63 4.21 275.7 0.0 0.0 38.95
2020-02-28 06:20 25.02 69.64 16.49 21.18 25.02 3.13 282.1 0.0 0.001 38.88
2020-02-28 06:25 24.53 70.26 16.23 20.1 24.53 3.49 312.7 0.0 0.001 38.8
2020-02-28 06:30 24.66 68.68 15.83 20.77 24.66 3.13 308.5 0.0 0.002 38.73
2020-02-28 06:35 25.02 67.21 15.67 20.65 25.02 3.49 288.5 0.0 0.003 38.68
2020-02-28 06:40 24.89 67.93 15.8 24.89 24.89 2.24 284.0 0.0 0.006 38.64
2020-02-28 06:45 24.76 68.82 15.98 20.12 24.76 3.67 289.9 0.0 0.009 38.57
2020-02-28 06:50 25.14 67.32 15.83 19.66 25.14 4.38 255.1 0.0 0.014 38.52
2020-02-28 06:55 26.06 64.75 15.81 19.61 26.06 5.46 247.9 0.0 0.019 38.46
2020-02-28 07:00 26.37 62.94 15.45 20.5 26.37 4.92 240.7 0.0 0.025 38.43
2020-02-28 07:05 26.92 62.25 15.73 21.73 26.92 4.38 245.3 0.0 0.031 38.41
2020-02-28 07:10 27.73 61.4 16.18 22.48 27.73 4.56 299.0 0.0 0.038 38.41
2020-02-28 07:15 28.35 59.93 16.2 23.39 28.35 4.38 260.8 0.0 0.045 38.41
2020-02-28 07:20 29.01 58.97 16.46 25.22 29.01 3.49 292.1 0.0 0.05 38.43
2020-02-28 07:25 29.8 58.93 17.19 25.9 29.8 3.67 285.8 0.0 0.055 38.46
2020-02-28 07:30 30.31 56.64 16.74 27.18 30.31 3.13 317.9 0.0 0.061 38.5
2020-02-28 07:35 31.23 54.41 16.67 31.23 31.23 2.24 298.3 0.0 0.066 38.53
2020-02-28 07:40 31.84 52.9 16.59 31.84 31.84 2.77 329.8 0.0 0.072 38.59
2020-02-28 07:45 32.38 52.32 16.84 32.38 32.38 2.24 303.8 0.0 0.077 38.68
2020-02-28 07:50 32.68 53.0 17.43 32.68 32.68 2.77 285.3 0.0 0.083 38.73
2020-02-28 07:55 33.55 51.8 17.7 33.55 33.55 2.59 311.3 0.0 0.089 38.84
2020-02-28 08:00 34.29 49.92 17.53 34.29 34.29 1.52 244.4 0.0 0.094 38.97
2020-02-28 08:05 34.83 49.61 17.88 34.83 34.83 2.42 280.2 0.0 0.1 39.07
2020-02-28 08:10 35.44 49.12 18.21 35.44 35.44 2.77 256.4 0.0 0.106 39.18
2020-02-28 08:15 35.87 47.99 18.07 35.87 35.87 2.59 296.2 0.0 0.111 39.33
2020-02-28 08:20 36.72 46.62 18.17 34.04 36.72 3.49 287.4 0.0 0.117 39.47
2020-02-28 08:25 37.63 45.08 18.23 37.63 37.63 2.59 252.6 0.0 0.122 39.6
2020-02-28 08:30 38.98 42.93 18.33 38.98 38.98 2.77 291.5 0.0 0.128 39.69
2020-02-28 08:35 39.11 43.2 18.59 39.11 39.11 2.77 283.7 0.0 0.133 39.76
2020-02-28 08:40 39.47 42.41 18.48 39.47 39.47 1.88 312.7 0.0 0.138 39.78
2020-02-28 08:45 40.21 41.01 18.37 37.68 40.21 3.85 279.2 0.0 0.143 39.81
2020-02-28 08:50 41.07 41.24 19.28 41.07 41.07 1.88 314.4 0.0 0.148 39.79
2020-02-28 08:55 41.81 40.87 19.74 39.05 41.81 4.38 259.1 0.0 0.153 39.79
2020-02-28 09:00 41.74 38.68 18.39 39.44 41.74 3.85 258.7 0.0 0.158 39.79
2020-02-28 09:05 42.48 37.45 18.3 39.28 42.48 5.1 222.5 0.0 0.163 39.81
2020-02-28 09:10 42.64 35.53 17.22 40.16 42.64 4.21 240.8 0.0 0.168 39.79
2020-02-28 09:15 43.12 35.32 17.51 39.24 43.12 6.35 260.4 0.0 0.173 39.81
2020-02-28 09:20 44.55 34.64 18.32 41.48 44.55 5.46 242.7 0.0 0.177 39.81
2020-02-28 09:25 44.24 34.23 17.78 42.32 44.24 3.85 277.0 0.0 0.182 39.83
2020-02-28 09:30 44.73 33.2 17.5 41.81 44.73 5.28 280.8 0.0 0.186 39.87
2020-02-28 09:35 44.73 31.56 16.32 41.26 44.73 6.17 206.1 0.0 0.191 39.92
2020-02-28 09:40 45.64 31.53 17.11 42.89 45.64 5.28 244.4 0.0 0.194 40.05
2020-02-28 09:45 46.38 30.88 17.27 46.38 46.38 2.77 263.5 0.0 0.199 40.24
2020-02-28 09:50 47.05 31.08 18.0 43.94 47.05 6.35 248.7 0.0 0.203 40.5
2020-02-28 09:55 47.66 29.09 17.0 45.06 47.66 5.64 229.4 0.0 0.206 40.8
2020-02-28 10:00 48.27 29.33 17.73 45.99 48.27 5.28 273.5 0.0 0.21 41.16
2020-02-28 10:05 48.15 28.79 17.18 47.27 48.15 3.31 312.3 0.0 0.214 41.54
2020-02-28 10:10 48.81 28.07 17.18 47.2 48.81 4.38 296.5 0.0 0.217 41.94
2020-02-28 10:15 48.88 28.27 17.4 46.82 48.88 5.1 291.9 0.0 0.22 42.33
2020-02-28 10:20 49.62 28.62 18.33 47.91 49.62 4.74 278.4 0.0 0.224 42.73
2020-02-28 10:25 50.05 25.85 16.34 50.05 50.05 3.85 235.3 0.0 0.227 43.14

Data is courtesy of the NM Climate Center. DO NOT USE IN LEGAL PROCEEDINGS.